首页
METAR-TAF:

METAR-TAF

机场 :

Stewart International Airport

Newburgh, 紐約州, 美国

纬度: 41-30N, 经度: 074-06W, 海拔: 150米

当前天气观测

该预报发布于1小时和13分钟前的01:45 UTC
静风
温度 4°C
湿度 100%
气压 1012 hPa
能見度: 16.1公里
阴天层高于2500英尺

METAR: KSWF 200145Z 00000KT 10SM OVC025 04/04 A2987

时间: 21:58 (02:58 UTC)

预报

该预报发布于25分钟前的02:33 UTC
预报有效从20日的 03点(UTC)到 21日的 06点(UTC)
风速3节,风向多变
能見度: 10公里
散云层高于1500英尺
阴天层高于2500英尺
短暂存在
从 20日的 06点(UTC)到 20日的 09点(UTC)
多云层高于1500英尺
从 20日的 0900点(UTC)
风速3节,风向
能見度: 10公里
阴天层高于2000英尺
从 20日的 1400点(UTC)
风速7节,风向北转西北
能見度: 10公里
散云层高于3500英尺
阴天层高于4000英尺
从 20日的 1600点(UTC)
风速9节,风向北转西北
能見度: 10公里
散云层高于3000英尺
多云层高于3500英尺
从 20日的 1900点(UTC)
风速12节,风向北转西北,有时为19节阵风
能見度: 10公里
散云层高于4000英尺
多云层高于5000英尺
从 20日的 2300点(UTC)
风速11节,风向北转西北
能見度: 10公里
散云层高于4000英尺
散云层高于7000英尺

TAF: KSWF 200233Z 2003/2106 VRB03KT P6SM SCT015 OVC025 TEMPO 2006/2009 BKN015 FM200900 35003KT P6SM OVC020 FM201400 34007KT P6SM SCT035 OVC040 FM201600 34009KT P6SM SCT030 BKN035 FM201900 33012G19KT P6SM SCT040 BKN050 FM202300 33011KT P6SM SCT040 SCT070 AMD NOT SKED

超过4000个机场的气象观测和天气预报(METAR&TAF报告)。

可查询的气象台以黄色和红色小点在地图上表示。

将鼠标移到小点上方,可查看气象台名称。

然后点击查看天气观测和预报。

如需切换地图:点击带黑十字的绿色按钮放大地图;点击带横线的绿色按钮缩小地图;或者点击绿色箭头查看邻近地区的地图。


METAR-TAF: